createdAt,value
2019-03-30T00:06:40.316Z,6.88
2019-03-30T00:09:23.438Z,6.92
2019-03-30T00:12:14.180Z,6.74
2019-03-30T00:15:04.644Z,6.61
2019-03-30T00:17:48.597Z,6.74
2019-03-30T00:20:58.501Z,6.61
2019-03-30T00:26:39.971Z,6.67
2019-03-30T00:29:30.801Z,6.50
2019-03-30T00:32:15.451Z,6.51
2019-03-30T00:35:24.820Z,6.57
2019-03-30T00:38:08.339Z,6.49
2019-03-30T00:40:58.953Z,6.58
2019-03-30T00:43:49.248Z,6.49
2019-03-30T00:46:39.569Z,6.48
2019-03-30T00:49:29.873Z,6.45
2019-03-30T00:52:20.201Z,6.42
2019-03-30T00:55:10.619Z,6.48
2019-03-30T00:58:00.969Z,6.43
2019-03-30T01:00:51.274Z,6.43
2019-03-30T01:03:33.865Z,6.35
2019-03-30T01:06:16.588Z,6.35
2019-03-30T01:12:03.745Z,6.17
2019-03-30T01:18:17.177Z,6.16
2019-03-30T01:21:07.464Z,6.01
2019-03-30T01:23:50.094Z,6.15
2019-03-30T01:26:40.341Z,6.09
2019-03-30T01:29:22.711Z,6.05
2019-03-30T01:32:13.015Z,5.95
2019-03-30T01:34:56.092Z,6.01
2019-03-30T01:37:39.243Z,5.99
2019-03-30T01:40:29.486Z,5.86
2019-03-30T01:43:19.727Z,5.78
2019-03-30T01:46:10.043Z,5.69
2019-03-30T01:48:53.250Z,5.55
2019-03-30T01:51:43.535Z,5.54
2019-03-30T01:54:33.894Z,5.59
2019-03-30T01:57:16.403Z,5.53
2019-03-30T02:00:08.741Z,5.34
2019-03-30T02:02:59.015Z,5.44
2019-03-30T02:05:42.291Z,5.22
2019-03-30T02:11:44.128Z,5.16
2019-03-30T02:14:34.474Z,5.10
2019-03-30T02:17:24.949Z,5.01
2019-03-30T02:20:30.936Z,4.99
2019-03-30T02:23:11.471Z,5.11
2019-03-30T02:26:01.825Z,5.07
2019-03-30T02:28:45.025Z,5.24
2019-03-30T02:31:35.527Z,5.28
2019-03-30T02:34:17.946Z,5.26
2019-03-30T02:37:08.199Z,5.15
2019-03-30T02:39:58.484Z,5.28
2019-03-30T02:42:41.318Z,5.18
2019-03-30T02:45:31.737Z,5.13
2019-03-30T02:48:22.068Z,5.23
2019-03-30T02:51:12.743Z,5.09
2019-03-30T02:54:03.089Z,5.03
2019-03-30T02:56:53.539Z,4.99
2019-03-30T02:59:36.087Z,5.06
2019-03-30T03:02:26.485Z,5.09
2019-03-30T03:05:16.819Z,4.98
2019-03-30T03:08:07.229Z,4.97
2019-03-30T03:10:57.635Z,5.12
2019-03-30T03:13:47.988Z,5.11
2019-03-30T03:16:38.312Z,4.99
2019-03-30T03:19:28.652Z,5.02
2019-03-30T03:25:03.712Z,5.03
2019-03-30T03:27:53.995Z,4.94
2019-03-30T03:30:44.322Z,4.78
2019-03-30T03:33:34.805Z,4.74
2019-03-30T03:36:25.399Z,4.30
2019-03-30T03:39:16.144Z,4.42
2019-03-30T03:42:06.641Z,4.51
2019-03-30T03:45:15.730Z,4.39
2019-03-30T03:48:06.055Z,4.32
2019-03-30T03:51:28.904Z,4.34
2019-03-30T03:54:11.043Z,4.40
2019-03-30T03:57:32.485Z,4.52
2019-03-30T04:00:15.150Z,4.54
2019-03-30T04:06:57.061Z,4.57
2019-03-30T04:09:39.991Z,4.58
2019-03-30T04:12:41.966Z,4.48
2019-03-30T04:15:26.062Z,4.51
2019-03-30T04:21:22.291Z,4.50
2019-03-30T04:24:05.478Z,4.46
2019-03-30T04:26:55.886Z,4.73
2019-03-30T04:32:40.219Z,4.58
2019-03-30T04:35:30.562Z,4.32
2019-03-30T04:38:20.859Z,4.54
2019-03-30T04:41:11.240Z,4.58
2019-03-30T04:44:01.531Z,4.48
2019-03-30T04:46:51.786Z,4.49
2019-03-30T04:49:34.587Z,4.32
2019-03-30T04:52:25.097Z,4.19
2019-03-30T04:55:15.406Z,4.18
2019-03-30T04:58:09.073Z,4.23
2019-03-30T05:00:57.794Z,3.93
2019-03-30T05:03:48.077Z,3.91
2019-03-30T05:06:30.984Z,3.96
2019-03-30T05:09:21.469Z,4.00
2019-03-30T05:12:11.807Z,3.87
2019-03-30T05:15:20.921Z,3.83
2019-03-30T05:18:22.697Z,3.72
2019-03-30T05:21:05.655Z,3.61
2019-03-30T05:23:55.909Z,3.57
2019-03-30T05:26:46.174Z,3.47
2019-03-30T05:29:29.077Z,3.42
2019-03-30T05:32:19.349Z,3.67
2019-03-30T05:35:01.973Z,3.73
2019-03-30T05:40:46.295Z,3.75
2019-03-30T05:43:47.777Z,3.75
2019-03-30T05:46:30.743Z,3.87
2019-03-30T05:49:21.035Z,3.97
2019-03-30T05:52:03.881Z,3.88
2019-03-30T05:54:54.270Z,4.02
2019-03-30T05:57:37.123Z,4.07
2019-03-30T06:00:27.587Z,4.24
2019-03-30T06:03:10.050Z,4.21
2019-03-30T06:06:00.389Z,4.33
2019-03-30T06:08:43.049Z,4.31
2019-03-30T06:11:33.356Z,4.69
2019-03-30T06:14:16.010Z,4.73
2019-03-30T06:16:47.854Z,4.89
2019-03-30T06:19:38.119Z,5.08
2019-03-30T06:22:20.598Z,5.11
2019-03-30T06:25:10.912Z,5.22
2019-03-30T06:30:46.846Z,5.38
2019-03-30T06:33:37.341Z,5.45
2019-03-30T06:36:27.868Z,5.34
2019-03-30T06:39:18.120Z,5.40
2019-03-30T06:42:08.351Z,5.78
2019-03-30T06:44:58.635Z,6.80
2019-03-30T06:47:41.188Z,8.33
2019-03-30T06:50:31.538Z,9.13
2019-03-30T06:53:21.896Z,9.83
2019-03-30T06:56:12.200Z,10.49
2019-03-30T06:59:02.497Z,11.49
2019-03-30T07:01:52.791Z,12.65
2019-03-30T07:04:35.621Z,13.31
2019-03-30T07:07:37.559Z,13.59
2019-03-30T07:10:20.487Z,13.88
2019-03-30T07:13:10.764Z,13.21
2019-03-30T07:16:01.030Z,12.95
2019-03-30T07:18:43.642Z,12.75
2019-03-30T07:21:33.974Z,11.97
2019-03-30T07:24:24.346Z,12.46
2019-03-30T07:27:25.977Z,12.21
2019-03-30T07:30:08.721Z,12.27
2019-03-30T07:32:58.996Z,12.71
2019-03-30T07:35:43.202Z,13.32
2019-03-30T07:38:33.484Z,14.18
2019-03-30T07:41:15.682Z,14.25
2019-03-30T07:44:05.958Z,13.92
2019-03-30T07:46:48.537Z,13.34
2019-03-30T07:49:38.830Z,13.87
2019-03-30T07:52:21.388Z,14.67
2019-03-30T07:55:12.252Z,15.10
2019-03-30T07:57:55.858Z,15.60
2019-03-30T08:00:46.070Z,15.88
2019-03-30T08:03:28.594Z,16.80
2019-03-30T08:06:18.863Z,16.48
2019-03-30T08:09:01.513Z,16.85
2019-03-30T08:11:51.766Z,16.66
2019-03-30T08:14:34.515Z,17.50
2019-03-30T08:17:24.982Z,17.55
2019-03-30T08:20:07.996Z,17.57
2019-03-30T08:22:58.306Z,17.14
2019-03-30T08:25:41.101Z,16.08
2019-03-30T08:28:31.418Z,15.24
2019-03-30T08:31:14.719Z,14.89
2019-03-30T08:33:57.321Z,15.28
2019-03-30T08:36:47.641Z,14.17
2019-03-30T08:39:37.945Z,13.28
2019-03-30T08:42:28.381Z,13.14
2019-03-30T08:45:18.779Z,12.58
2019-03-30T08:48:09.146Z,12.10
2019-03-30T08:50:59.470Z,11.94
2019-03-30T08:53:54.845Z,11.75
2019-03-30T08:56:35.539Z,11.48
2019-03-30T08:59:18.491Z,11.55
2019-03-30T09:02:08.867Z,11.63
2019-03-30T09:04:59.159Z,11.89
2019-03-30T09:07:49.395Z,12.42
2019-03-30T09:10:39.663Z,12.31
2019-03-30T09:13:29.944Z,12.54
2019-03-30T09:16:12.415Z,12.75
2019-03-30T09:19:02.907Z,12.74
2019-03-30T09:21:45.531Z,13.00
2019-03-30T09:24:35.795Z,12.97
2019-03-30T09:27:18.435Z,13.41
2019-03-30T09:33:22.089Z,13.49
2019-03-30T09:36:12.461Z,14.25
2019-03-30T09:41:58.946Z,13.75
2019-03-30T09:44:49.232Z,14.09
2019-03-30T09:47:31.658Z,14.50
2019-03-30T09:50:21.923Z,14.76
2019-03-30T09:53:04.605Z,14.62
2019-03-30T09:55:54.867Z,14.24
2019-03-30T09:58:37.744Z,14.50
2019-03-30T10:01:28.035Z,14.55
2019-03-30T10:04:12.621Z,14.34
2019-03-30T10:07:02.891Z,14.24
2019-03-30T10:09:47.330Z,14.69
2019-03-30T10:12:37.514Z,14.92
2019-03-30T10:15:20.770Z,15.53
2019-03-30T10:18:11.363Z,15.14
2019-03-30T10:20:54.077Z,15.07
2019-03-30T10:23:44.391Z,14.79
2019-03-30T10:26:28.673Z,15.01
2019-03-30T10:29:18.946Z,15.54
2019-03-30T10:32:02.160Z,15.86
2019-03-30T10:34:52.419Z,15.77
2019-03-30T10:37:35.063Z,15.99
2019-03-30T10:40:25.308Z,16.54
2019-03-30T10:43:12.500Z,16.87
2019-03-30T10:46:02.737Z,16.97
2019-03-30T10:48:45.518Z,16.68
2019-03-30T10:51:35.798Z,16.22
2019-03-30T10:54:18.720Z,16.55
2019-03-30T10:57:09.061Z,16.72
2019-03-30T10:59:51.536Z,16.58
2019-03-30T11:02:41.846Z,17.03
2019-03-30T11:05:32.097Z,16.70
2019-03-30T11:08:15.253Z,16.91
2019-03-30T11:11:05.552Z,16.54
2019-03-30T11:13:55.884Z,16.45
2019-03-30T11:16:46.228Z,16.38
2019-03-30T11:19:36.729Z,16.79
2019-03-30T11:22:38.920Z,16.82
2019-03-30T11:25:21.554Z,16.50
2019-03-30T11:28:11.825Z,16.67
2019-03-30T11:30:54.194Z,16.40
2019-03-30T11:33:44.467Z,16.61
2019-03-30T11:36:26.789Z,16.84
2019-03-30T11:39:17.083Z,17.18
2019-03-30T11:42:00.012Z,17.09
2019-03-30T11:44:50.308Z,16.77
2019-03-30T11:47:33.556Z,16.91
2019-03-30T11:50:23.870Z,17.33
2019-03-30T11:56:08.558Z,17.25
2019-03-30T11:58:51.502Z,17.30
2019-03-30T12:01:41.748Z,17.04
2019-03-30T12:04:24.177Z,17.04
2019-03-30T12:07:14.471Z,17.28
2019-03-30T12:10:04.877Z,16.99
2019-03-30T12:12:47.291Z,17.07
2019-03-30T12:15:37.716Z,17.57
2019-03-30T12:18:28.631Z,17.66
2019-03-30T12:21:18.955Z,17.48
2019-03-30T12:24:01.210Z,17.89
2019-03-30T12:26:51.490Z,17.72
2019-03-30T12:29:35.062Z,17.55
2019-03-30T12:32:25.390Z,17.58
2019-03-30T12:35:08.084Z,17.41
2019-03-30T12:37:58.353Z,17.75
2019-03-30T12:40:41.031Z,17.49
2019-03-30T12:43:31.300Z,17.76
2019-03-30T12:46:14.396Z,17.25
2019-03-30T12:49:04.680Z,17.62
2019-03-30T12:51:48.188Z,17.75
2019-03-30T12:54:39.039Z,17.85
2019-03-30T12:57:21.651Z,17.85
2019-03-30T13:03:26.015Z,17.71
2019-03-30T13:09:20.570Z,18.34
2019-03-30T13:12:03.947Z,17.73
2019-03-30T13:14:54.297Z,17.77
2019-03-30T13:17:44.635Z,17.42
2019-03-30T13:20:53.736Z,17.47
2019-03-30T13:23:40.134Z,17.55
2019-03-30T13:26:49.427Z,17.53
2019-03-30T13:29:40.077Z,17.28
2019-03-30T13:35:33.692Z,17.46
2019-03-30T13:38:16.263Z,17.58
2019-03-30T13:41:06.604Z,17.94
2019-03-30T13:43:57.535Z,17.79
2019-03-30T13:49:43.410Z,18.20
2019-03-30T13:52:34.377Z,17.92
2019-03-30T13:55:25.256Z,17.83
2019-03-30T13:58:16.106Z,17.78
2019-03-30T14:00:59.005Z,17.53
2019-03-30T14:03:49.384Z,17.57
2019-03-30T14:06:31.687Z,17.48
2019-03-30T14:09:23.788Z,17.99
2019-03-30T14:12:07.137Z,18.15
2019-03-30T14:14:57.435Z,17.96
2019-03-30T14:17:39.817Z,17.75
2019-03-30T14:20:30.984Z,18.10
2019-03-30T14:23:14.966Z,17.96
2019-03-30T14:26:05.990Z,17.70
2019-03-30T14:28:56.620Z,17.78
2019-03-30T14:31:58.441Z,17.68
2019-03-30T14:34:42.310Z,17.77
2019-03-30T14:37:27.663Z,17.77
2019-03-30T14:40:18.768Z,17.89
2019-03-30T14:43:09.816Z,17.90
2019-03-30T14:46:01.084Z,18.02
2019-03-30T14:48:52.104Z,17.97
2019-03-30T14:51:43.077Z,17.81
2019-03-30T14:54:33.998Z,18.09
2019-03-30T14:57:24.989Z,18.37
2019-03-30T15:03:30.972Z,17.79
2019-03-30T15:06:21.942Z,17.99
2019-03-30T15:09:12.790Z,17.94
2019-03-30T15:12:03.698Z,17.82
2019-03-30T15:14:54.569Z,17.84
2019-03-30T15:17:45.384Z,17.93
2019-03-30T15:20:36.288Z,18.08
2019-03-30T15:23:27.334Z,17.97
2019-03-30T15:26:12.547Z,17.96
2019-03-30T15:29:03.374Z,17.93
2019-03-30T15:31:47.190Z,17.88
2019-03-30T15:34:37.430Z,17.95
2019-03-30T15:37:21.077Z,17.77
2019-03-30T15:43:37.559Z,18.02
2019-03-30T15:46:18.737Z,18.22
2019-03-30T15:49:01.921Z,18.14
2019-03-30T15:51:52.835Z,18.07
2019-03-30T15:54:43.773Z,17.84
2019-03-30T15:57:34.975Z,17.81
2019-03-30T16:00:26.129Z,17.90
2019-03-30T16:03:16.195Z,17.99
2019-03-30T16:05:59.425Z,17.95
2019-03-30T16:08:31.701Z,17.79
2019-03-30T16:11:22.894Z,17.81
2019-03-30T16:14:07.836Z,17.69
2019-03-30T16:17:17.309Z,17.61
2019-03-30T16:20:37.261Z,17.61
2019-03-30T16:23:20.516Z,17.52
2019-03-30T16:26:11.475Z,17.33
2019-03-30T16:29:02.814Z,17.45
2019-03-30T16:31:53.177Z,17.52
2019-03-30T16:34:43.473Z,17.49
2019-03-30T16:40:08.321Z,17.47
2019-03-30T16:42:59.182Z,17.45
2019-03-30T16:45:46.741Z,17.34
2019-03-30T16:48:37.864Z,17.43
2019-03-30T16:51:21.904Z,17.30
2019-03-30T16:54:13.108Z,17.35
2019-03-30T16:56:55.653Z,17.28
2019-03-30T17:03:08.810Z,17.32
2019-03-30T17:05:51.562Z,17.07
2019-03-30T17:08:42.059Z,17.16
2019-03-30T17:11:32.341Z,17.05
2019-03-30T17:14:14.561Z,17.04
2019-03-30T17:16:45.997Z,16.82
2019-03-30T17:19:36.265Z,16.78
2019-03-30T17:22:18.931Z,16.72
2019-03-30T17:25:09.243Z,16.73
2019-03-30T17:27:59.673Z,16.55
2019-03-30T17:30:50.067Z,16.49
2019-03-30T17:33:40.473Z,16.26
2019-03-30T17:36:30.794Z,16.06
2019-03-30T17:39:14.199Z,15.82
2019-03-30T17:42:04.672Z,15.80
2019-03-30T17:44:54.931Z,15.53
2019-03-30T17:47:45.218Z,15.42
2019-03-30T17:50:27.479Z,15.36
2019-03-30T17:53:17.719Z,15.24
2019-03-30T17:56:02.049Z,15.15
2019-03-30T17:58:52.583Z,14.94
2019-03-30T18:01:42.932Z,14.91
2019-03-30T18:04:25.773Z,14.73
2019-03-30T18:07:16.103Z,14.63
2019-03-30T18:10:06.797Z,14.66
2019-03-30T18:12:57.138Z,14.59
2019-03-30T18:15:47.452Z,14.39
2019-03-30T18:18:37.805Z,14.22
2019-03-30T18:21:28.143Z,14.18
2019-03-30T18:24:18.455Z,14.01
2019-03-30T18:27:19.899Z,14.04
2019-03-30T18:30:03.005Z,13.95
2019-03-30T18:32:53.656Z,13.80
2019-03-30T18:35:38.322Z,13.65
2019-03-30T18:38:12.708Z,13.57
2019-03-30T18:40:54.097Z,13.35
2019-03-30T18:43:44.375Z,13.08
2019-03-30T18:46:34.675Z,13.05
2019-03-30T18:49:16.975Z,13.18
2019-03-30T18:52:07.329Z,13.12
2019-03-30T18:54:49.916Z,12.88
2019-03-30T18:57:40.188Z,12.66
2019-03-30T19:00:26.858Z,12.75
2019-03-30T19:03:20.162Z,12.52
2019-03-30T19:06:01.522Z,12.26
2019-03-30T19:09:10.640Z,12.32
2019-03-30T19:11:42.133Z,12.26
2019-03-30T19:14:32.477Z,12.20
2019-03-30T19:17:15.012Z,12.17
2019-03-30T19:23:18.273Z,11.91
2019-03-30T19:26:08.562Z,11.80
2019-03-30T19:29:17.683Z,11.66
2019-03-30T19:32:08.026Z,11.72
2019-03-30T19:34:50.867Z,11.31
2019-03-30T19:37:41.166Z,11.24
2019-03-30T19:40:23.625Z,11.20
2019-03-30T19:43:13.892Z,11.20
2019-03-30T19:45:56.310Z,11.09
2019-03-30T19:48:46.547Z,11.09
2019-03-30T19:51:28.973Z,11.25
2019-03-30T19:54:19.227Z,10.99
2019-03-30T19:57:01.494Z,10.94
2019-03-30T19:59:51.809Z,11.03
2019-03-30T20:02:34.598Z,10.92
2019-03-30T20:05:24.980Z,10.91
2019-03-30T20:08:12.315Z,10.77
2019-03-30T20:10:59.975Z,10.72
2019-03-30T20:13:43.175Z,10.60
2019-03-30T20:16:33.618Z,10.65
2019-03-30T20:19:23.958Z,10.59
2019-03-30T20:22:44.528Z,10.46
2019-03-30T20:25:27.429Z,10.47
2019-03-30T20:28:17.839Z,10.41
2019-03-30T20:31:08.163Z,10.32
2019-03-30T20:33:58.490Z,10.31
2019-03-30T20:36:48.764Z,10.44
2019-03-30T20:39:39.160Z,10.44
2019-03-30T20:42:29.515Z,10.36
2019-03-30T20:45:19.861Z,10.32
2019-03-30T20:48:10.163Z,10.30
2019-03-30T20:51:00.464Z,10.39
2019-03-30T20:53:50.975Z,10.24
2019-03-30T20:56:41.263Z,10.28
2019-03-30T20:59:39.942Z,10.13
2019-03-30T21:02:23.545Z,10.13
2019-03-30T21:05:08.294Z,10.19
2019-03-30T21:07:58.559Z,10.19
2019-03-30T21:10:41.033Z,10.21
2019-03-30T21:13:31.258Z,10.11
2019-03-30T21:16:16.077Z,9.85
2019-03-30T21:19:07.596Z,9.78
2019-03-30T21:21:50.471Z,9.77
2019-03-30T21:39:17.483Z,9.55
2019-03-30T21:54:26.611Z,9.51
2019-03-30T22:00:40.527Z,9.49
2019-03-30T22:03:23.339Z,9.34
2019-03-30T22:06:13.806Z,9.16
2019-03-30T22:09:34.581Z,9.21
2019-03-30T22:12:18.265Z,9.32
2019-03-30T22:15:00.588Z,9.15
2019-03-30T22:17:50.876Z,9.05
2019-03-30T22:20:33.732Z,8.91
2019-03-30T22:23:24.104Z,8.67
2019-03-30T22:26:06.798Z,8.86
2019-03-30T22:29:08.053Z,8.75
2019-03-30T22:31:54.357Z,8.81
2019-03-30T22:34:44.630Z,8.92
2019-03-30T22:37:27.251Z,8.85
2019-03-30T22:40:09.488Z,8.86
2019-03-30T22:42:59.736Z,8.67
2019-03-30T22:45:50.004Z,8.81
2019-03-30T22:48:40.288Z,8.53
2019-03-30T22:51:22.911Z,8.64
2019-03-30T22:54:13.182Z,8.65
2019-03-30T22:56:44.680Z,8.60
2019-03-30T22:59:34.959Z,8.54
2019-03-30T23:02:17.188Z,8.47
2019-03-30T23:08:20.898Z,8.20
2019-03-30T23:11:11.236Z,8.10
2019-03-30T23:14:01.660Z,8.40
2019-03-30T23:16:51.934Z,8.36
2019-03-30T23:19:38.816Z,8.22
2019-03-30T23:22:22.852Z,8.12
2019-03-30T23:25:13.224Z,7.92
2019-03-30T23:28:03.517Z,8.03
2019-03-30T23:33:48.858Z,8.16
2019-03-30T23:36:39.156Z,8.08
2019-03-30T23:39:24.380Z,7.99
2019-03-30T23:42:14.722Z,8.16
2019-03-30T23:45:05.174Z,8.10
2019-03-30T23:47:55.534Z,8.11
2019-03-30T23:50:45.931Z,7.91
2019-03-30T23:53:36.247Z,7.88
